sensor_id;sensor_type;location;lat;lon;timestamp;pressure;altitude;pressure_sealevel;temperature;humidity
20942;BME280;10630;53.734;10.282;2023-02-18T00:01:34;101164.06;;;11.32;74.96
20942;BME280;10630;53.734;10.282;2023-02-18T00:04:01;101177.44;;;10.35;77.56
20942;BME280;10630;53.734;10.282;2023-02-18T00:06:31;101156.09;;;10.27;80.30
20942;BME280;10630;53.734;10.282;2023-02-18T00:08:59;101162.59;;;10.06;80.25
20942;BME280;10630;53.734;10.282;2023-02-18T00:11:29;101170.25;;;10.09;80.55
20942;BME280;10630;53.734;10.282;2023-02-18T00:13:58;101166.78;;;9.63;81.08
20942;BME280;10630;53.734;10.282;2023-02-18T00:16:26;101153.47;;;9.91;83.02
20942;BME280;10630;53.734;10.282;2023-02-18T00:18:54;101152.41;;;9.84;81.88
20942;BME280;10630;53.734;10.282;2023-02-18T00:21:21;101156.50;;;9.78;81.13
20942;BME280;10630;53.734;10.282;2023-02-18T00:23:48;101147.69;;;10.13;81.86
20942;BME280;10630;53.734;10.282;2023-02-18T00:26:15;101141.81;;;10.72;78.51
20942;BME280;10630;53.734;10.282;2023-02-18T00:28:45;101157.03;;;10.00;79.73
20942;BME280;10630;53.734;10.282;2023-02-18T00:31:15;101154.22;;;10.37;77.47
20942;BME280;10630;53.734;10.282;2023-02-18T00:33:43;101152.22;;;9.49;79.93
20942;BME280;10630;53.734;10.282;2023-02-18T00:36:13;101149.41;;;10.05;78.42
20942;BME280;10630;53.734;10.282;2023-02-18T00:39:00;101141.75;;;10.20;76.19
20942;BME280;10630;53.734;10.282;2023-02-18T00:41:29;101146.59;;;10.95;75.28
20942;BME280;10630;53.734;10.282;2023-02-18T00:43:56;101149.34;;;10.33;76.59
20942;BME280;10630;53.734;10.282;2023-02-18T00:46:24;101148.13;;;10.27;76.53
20942;BME280;10630;53.734;10.282;2023-02-18T00:48:54;101156.56;;;10.04;75.32
20942;BME280;10630;53.734;10.282;2023-02-18T00:51:23;101162.88;;;10.03;76.47
20942;BME280;10630;53.734;10.282;2023-02-18T00:53:50;101162.81;;;10.75;75.18
20942;BME280;10630;53.734;10.282;2023-02-18T00:56:18;101170.56;;;10.42;74.16
20942;BME280;10630;53.734;10.282;2023-02-18T00:58:46;101172.84;;;10.37;74.86
20942;BME280;10630;53.734;10.282;2023-02-18T01:01:13;101180.94;;;10.36;76.48
20942;BME280;10630;53.734;10.282;2023-02-18T01:03:42;101183.34;;;10.91;73.67
20942;BME280;10630;53.734;10.282;2023-02-18T01:06:10;101190.75;;;11.40;71.08
20942;BME280;10630;53.734;10.282;2023-02-18T01:08:38;101190.13;;;11.12;71.73
20942;BME280;10630;53.734;10.282;2023-02-18T01:11:06;101205.56;;;10.56;74.55
20942;BME280;10630;53.734;10.282;2023-02-18T01:13:36;101201.94;;;10.83;72.27
20942;BME280;10630;53.734;10.282;2023-02-18T01:16:03;101196.16;;;10.61;75.01
20942;BME280;10630;53.734;10.282;2023-02-18T01:18:32;101194.81;;;10.84;72.23
20942;BME280;10630;53.734;10.282;2023-02-18T01:21:06;101201.53;;;10.96;70.48
20942;BME280;10630;53.734;10.282;2023-02-18T01:23:34;101189.38;;;11.28;71.25
20942;BME280;10630;53.734;10.282;2023-02-18T01:26:01;101189.44;;;10.75;72.95
20942;BME280;10630;53.734;10.282;2023-02-18T01:28:28;101189.94;;;10.53;72.67
20942;BME280;10630;53.734;10.282;2023-02-18T01:30:57;101182.50;;;11.17;71.43
20942;BME280;10630;53.734;10.282;2023-02-18T01:33:24;101192.03;;;10.67;70.34
20942;BME280;10630;53.734;10.282;2023-02-18T01:35:55;101197.97;;;10.61;72.72
20942;BME280;10630;53.734;10.282;2023-02-18T01:38:21;101189.97;;;11.14;69.30
20942;BME280;10630;53.734;10.282;2023-02-18T01:40:50;101187.28;;;11.05;69.57
20942;BME280;10630;53.734;10.282;2023-02-18T01:43:19;101185.22;;;10.73;71.30
20942;BME280;10630;53.734;10.282;2023-02-18T01:48:19;101190.66;;;11.24;69.69
20942;BME280;10630;53.734;10.282;2023-02-18T01:50:53;101192.13;;;11.10;70.13
20942;BME280;10630;53.734;10.282;2023-02-18T01:53:27;101191.09;;;10.76;73.10
20942;BME280;10630;53.734;10.282;2023-02-18T01:55:57;101186.31;;;11.15;72.45
20942;BME280;10630;53.734;10.282;2023-02-18T01:58:25;101180.69;;;10.65;74.88
20942;BME280;10630;53.734;10.282;2023-02-18T02:00:52;101173.31;;;11.12;69.85
20942;BME280;10630;53.734;10.282;2023-02-18T02:03:19;101174.63;;;10.55;72.43
20942;BME280;10630;53.734;10.282;2023-02-18T02:05:47;101180.63;;;10.57;72.02
20942;BME280;10630;53.734;10.282;2023-02-18T02:08:14;101177.50;;;10.88;72.12
20942;BME280;10630;53.734;10.282;2023-02-18T02:10:58;101171.78;;;11.44;72.66
20942;BME280;10630;53.734;10.282;2023-02-18T02:13:33;101167.47;;;11.51;69.51
20942;BME280;10630;53.734;10.282;2023-02-18T02:16:05;101161.38;;;11.83;68.51
20942;BME280;10630;53.734;10.282;2023-02-18T02:18:44;101158.56;;;10.91;70.32
20942;BME280;10630;53.734;10.282;2023-02-18T02:21:38;101140.72;;;11.26;72.72
20942;BME280;10630;53.734;10.282;2023-02-18T02:45:43;101146.88;;;11.27;70.19
20942;BME280;10630;53.734;10.282;2023-02-18T02:48:15;101142.75;;;10.63;74.32
20942;BME280;10630;53.734;10.282;2023-02-18T02:53:17;101141.22;;;11.21;70.24
20942;BME280;10630;53.734;10.282;2023-02-18T02:55:47;101137.59;;;10.96;72.74
20942;BME280;10630;53.734;10.282;2023-02-18T02:58:16;101132.94;;;10.90;72.62
20942;BME280;10630;53.734;10.282;2023-02-18T03:11:18;101135.16;;;11.11;72.25
20942;BME280;10630;53.734;10.282;2023-02-18T03:16:26;101129.16;;;11.01;76.07
20942;BME280;10630;53.734;10.282;2023-02-18T03:21:35;101128.47;;;10.99;74.24
20942;BME280;10630;53.734;10.282;2023-02-18T03:26:50;101127.50;;;11.51;71.76
20942;BME280;10630;53.734;10.282;2023-02-18T03:29:19;101132.03;;;11.16;71.88
20942;BME280;10630;53.734;10.282;2023-02-18T03:31:48;101125.75;;;11.33;71.13
20942;BME280;10630;53.734;10.282;2023-02-18T03:34:22;101126.56;;;10.83;72.05
20942;BME280;10630;53.734;10.282;2023-02-18T03:36:52;101117.06;;;11.23;72.02
20942;BME280;10630;53.734;10.282;2023-02-18T03:39:20;101124.09;;;10.63;75.45
20942;BME280;10630;53.734;10.282;2023-02-18T03:41:48;101129.88;;;10.76;74.55
20942;BME280;10630;53.734;10.282;2023-02-18T03:44:15;101121.50;;;11.06;73.39
20942;BME280;10630;53.734;10.282;2023-02-18T03:46:45;101130.91;;;10.92;73.10
20942;BME280;10630;53.734;10.282;2023-02-18T03:49:13;101123.81;;;10.66;74.00
20942;BME280;10630;53.734;10.282;2023-02-18T03:51:42;101132.63;;;11.01;74.36
20942;BME280;10630;53.734;10.282;2023-02-18T03:54:11;101121.44;;;11.32;71.57
20942;BME280;10630;53.734;10.282;2023-02-18T03:56:39;101123.38;;;11.14;70.46
20942;BME280;10630;53.734;10.282;2023-02-18T03:59:07;101131.13;;;10.99;73.19
20942;BME280;10630;53.734;10.282;2023-02-18T04:01:34;101126.66;;;11.59;70.29
20942;BME280;10630;53.734;10.282;2023-02-18T04:04:01;101115.81;;;10.66;71.65
20942;BME280;10630;53.734;10.282;2023-02-18T04:06:29;101122.06;;;11.18;71.30
20942;BME280;10630;53.734;10.282;2023-02-18T04:08:57;101123.69;;;11.11;70.40
20942;BME280;10630;53.734;10.282;2023-02-18T04:11:25;101120.66;;;11.48;68.69
20942;BME280;10630;53.734;10.282;2023-02-18T04:13:53;101129.94;;;10.93;68.40
20942;BME280;10630;53.734;10.282;2023-02-18T04:16:21;101134.56;;;10.83;67.74
20942;BME280;10630;53.734;10.282;2023-02-18T04:18:48;101119.00;;;11.04;68.89
20942;BME280;10630;53.734;10.282;2023-02-18T04:21:16;101123.25;;;10.89;67.72
20942;BME280;10630;53.734;10.282;2023-02-18T04:23:43;101119.47;;;11.00;68.75
20942;BME280;10630;53.734;10.282;2023-02-18T04:26:09;101121.88;;;10.76;69.53
20942;BME280;10630;53.734;10.282;2023-02-18T04:28:38;101133.31;;;10.42;70.06
20942;BME280;10630;53.734;10.282;2023-02-18T04:31:04;101122.72;;;10.51;71.42
20942;BME280;10630;53.734;10.282;2023-02-18T04:33:32;101124.09;;;10.63;71.90
20942;BME280;10630;53.734;10.282;2023-02-18T04:35:59;101122.88;;;10.31;71.02
20942;BME280;10630;53.734;10.282;2023-02-18T04:38:26;101128.44;;;10.20;72.90
20942;BME280;10630;53.734;10.282;2023-02-18T04:40:54;101116.63;;;10.93;71.78
20942;BME280;10630;53.734;10.282;2023-02-18T04:43:20;101108.31;;;11.39;69.00
20942;BME280;10630;53.734;10.282;2023-02-18T04:45:49;101106.38;;;11.06;71.17
20942;BME280;10630;53.734;10.282;2023-02-18T04:48:17;101107.22;;;10.28;73.71
20942;BME280;10630;53.734;10.282;2023-02-18T04:50:44;101105.47;;;10.63;74.53
20942;BME280;10630;53.734;10.282;2023-02-18T04:53:11;101107.13;;;11.33;73.02
20942;BME280;10630;53.734;10.282;2023-02-18T04:55:38;101098.59;;;11.97;69.80
20942;BME280;10630;53.734;10.282;2023-02-18T04:58:05;101108.16;;;11.57;71.95
20942;BME280;10630;53.734;10.282;2023-02-18T05:00:31;101108.34;;;11.80;71.53
20942;BME280;10630;53.734;10.282;2023-02-18T05:03:01;101103.56;;;12.00;70.49
20942;BME280;10630;53.734;10.282;2023-02-18T05:05:30;101093.88;;;11.75;71.08
20942;BME280;10630;53.734;10.282;2023-02-18T05:07:57;101078.56;;;12.18;69.92
20942;BME280;10630;53.734;10.282;2023-02-18T05:10:26;101086.28;;;10.86;73.41
20942;BME280;10630;53.734;10.282;2023-02-18T05:12:55;101078.50;;;11.52;76.29
20942;BME280;10630;53.734;10.282;2023-02-18T05:15:23;101065.00;;;12.36;71.36
20942;BME280;10630;53.734;10.282;2023-02-18T05:17:50;101078.22;;;12.21;71.05
20942;BME280;10630;53.734;10.282;2023-02-18T05:20:17;101083.91;;;12.01;70.42
20942;BME280;10630;53.734;10.282;2023-02-18T05:22:44;101088.03;;;11.96;72.96
20942;BME280;10630;53.734;10.282;2023-02-18T05:25:12;101086.88;;;12.15;73.60
20942;BME280;10630;53.734;10.282;2023-02-18T05:27:40;101075.72;;;12.03;71.81
20942;BME280;10630;53.734;10.282;2023-02-18T05:30:07;101069.09;;;11.23;74.32
20942;BME280;10630;53.734;10.282;2023-02-18T05:32:35;101071.47;;;11.34;77.02
20942;BME280;10630;53.734;10.282;2023-02-18T05:35:04;101065.19;;;11.60;78.33
20942;BME280;10630;53.734;10.282;2023-02-18T05:37:32;101068.19;;;11.65;76.22
20942;BME280;10630;53.734;10.282;2023-02-18T05:40:00;101067.53;;;11.71;74.70
20942;BME280;10630;53.734;10.282;2023-02-18T05:42:30;101064.41;;;12.01;73.49
20942;BME280;10630;53.734;10.282;2023-02-18T05:44:58;101065.19;;;11.93;73.52
20942;BME280;10630;53.734;10.282;2023-02-18T05:47:27;101065.97;;;11.36;73.97
20942;BME280;10630;53.734;10.282;2023-02-18T05:49:55;101068.41;;;11.04;79.48
20942;BME280;10630;53.734;10.282;2023-02-18T05:52:22;101068.06;;;10.99;77.88
20942;BME280;10630;53.734;10.282;2023-02-18T05:54:50;101049.41;;;10.99;81.92
20942;BME280;10630;53.734;10.282;2023-02-18T05:57:19;101043.47;;;11.22;78.61
20942;BME280;10630;53.734;10.282;2023-02-18T05:59:48;101050.63;;;11.21;79.69
20942;BME280;10630;53.734;10.282;2023-02-18T06:02:15;101053.38;;;11.79;75.83
20942;BME280;10630;53.734;10.282;2023-02-18T06:04:44;101044.84;;;11.84;75.35
20942;BME280;10630;53.734;10.282;2023-02-18T06:07:12;101046.88;;;11.65;74.05
20942;BME280;10630;53.734;10.282;2023-02-18T06:09:39;101043.53;;;11.96;74.66
20942;BME280;10630;53.734;10.282;2023-02-18T06:12:06;101039.91;;;10.62;76.66
20942;BME280;10630;53.734;10.282;2023-02-18T06:14:35;101033.00;;;11.45;78.27
20942;BME280;10630;53.734;10.282;2023-02-18T06:17:06;101030.16;;;11.22;78.33
20942;BME280;10630;53.734;10.282;2023-02-18T06:19:34;101026.84;;;11.69;76.63
20942;BME280;10630;53.734;10.282;2023-02-18T06:22:01;101021.00;;;12.32;73.33
20942;BME280;10630;53.734;10.282;2023-02-18T06:24:28;101014.19;;;11.22;74.24
20942;BME280;10630;53.734;10.282;2023-02-18T06:26:55;101000.19;;;11.86;76.13
20942;BME280;10630;53.734;10.282;2023-02-18T06:29:22;101005.88;;;11.58;76.32
20942;BME280;10630;53.734;10.282;2023-02-18T06:31:51;100999.50;;;11.26;78.58
20942;BME280;10630;53.734;10.282;2023-02-18T06:34:18;100998.38;;;11.62;78.24
20942;BME280;10630;53.734;10.282;2023-02-18T06:36:45;100988.84;;;11.26;79.52
20942;BME280;10630;53.734;10.282;2023-02-18T06:39:12;100976.53;;;11.75;78.63
20942;BME280;10630;53.734;10.282;2023-02-18T06:41:39;100979.88;;;11.44;80.41
20942;BME280;10630;53.734;10.282;2023-02-18T06:44:08;100986.53;;;11.39;79.33
20942;BME280;10630;53.734;10.282;2023-02-18T06:46:36;100990.19;;;11.14;80.38
20942;BME280;10630;53.734;10.282;2023-02-18T06:49:05;100991.06;;;11.64;81.43
20942;BME280;10630;53.734;10.282;2023-02-18T06:51:32;100975.69;;;11.99;77.65
20942;BME280;10630;53.734;10.282;2023-02-18T06:53:59;100972.88;;;11.59;77.15
20942;BME280;10630;53.734;10.282;2023-02-18T06:56:26;100970.72;;;11.38;79.56
20942;BME280;10630;53.734;10.282;2023-02-18T06:58:56;100962.53;;;11.31;78.23
20942;BME280;10630;53.734;10.282;2023-02-18T07:01:23;100960.25;;;11.45;78.29
20942;BME280;10630;53.734;10.282;2023-02-18T07:03:50;100953.69;;;11.97;76.66
20942;BME280;10630;53.734;10.282;2023-02-18T07:06:18;100947.03;;;11.76;78.74
20942;BME280;10630;53.734;10.282;2023-02-18T07:08:47;100936.22;;;11.61;79.31
20942;BME280;10630;53.734;10.282;2023-02-18T07:11:16;100939.53;;;12.05;78.02
20942;BME280;10630;53.734;10.282;2023-02-18T07:13:43;100948.41;;;11.39;78.18
20942;BME280;10630;53.734;10.282;2023-02-18T07:16:09;100942.41;;;11.37;79.56
20942;BME280;10630;53.734;10.282;2023-02-18T07:18:37;100945.41;;;11.34;79.91
20942;BME280;10630;53.734;10.282;2023-02-18T07:21:04;100933.59;;;11.45;80.79
20942;BME280;10630;53.734;10.282;2023-02-18T07:23:33;100945.38;;;11.09;79.55
20942;BME280;10630;53.734;10.282;2023-02-18T07:26:03;100930.91;;;11.53;80.74
20942;BME280;10630;53.734;10.282;2023-02-18T07:28:31;100933.41;;;11.30;79.43
20942;BME280;10630;53.734;10.282;2023-02-18T07:30:59;100931.22;;;11.00;80.98
20942;BME280;10630;53.734;10.282;2023-02-18T07:33:26;100930.91;;;11.36;82.55
20942;BME280;10630;53.734;10.282;2023-02-18T07:35:55;100920.09;;;12.27;76.51
20942;BME280;10630;53.734;10.282;2023-02-18T07:38:22;100916.25;;;11.24;77.21
20942;BME280;10630;53.734;10.282;2023-02-18T07:40:49;100911.59;;;11.34;79.40
20942;BME280;10630;53.734;10.282;2023-02-18T07:43:17;100903.16;;;11.95;76.42
20942;BME280;10630;53.734;10.282;2023-02-18T07:45:47;100895.19;;;11.87;76.21
20942;BME280;10630;53.734;10.282;2023-02-18T07:48:17;100899.50;;;11.96;76.04
20942;BME280;10630;53.734;10.282;2023-02-18T07:50:45;100888.41;;;12.24;75.25
20942;BME280;10630;53.734;10.282;2023-02-18T07:53:14;100872.50;;;11.99;75.67
20942;BME280;10630;53.734;10.282;2023-02-18T07:55:44;100882.94;;;11.36;77.62
20942;BME280;10630;53.734;10.282;2023-02-18T07:58:22;100863.25;;;12.18;74.79
20942;BME280;10630;53.734;10.282;2023-02-18T08:00:51;100860.00;;;12.00;75.83
20942;BME280;10630;53.734;10.282;2023-02-18T08:03:20;100847.44;;;12.09;74.27
20942;BME280;10630;53.734;10.282;2023-02-18T08:05:48;100834.50;;;12.60;73.40
20942;BME280;10630;53.734;10.282;2023-02-18T08:08:17;100839.91;;;11.72;74.34
20942;BME280;10630;53.734;10.282;2023-02-18T08:10:46;100829.22;;;12.52;73.93
20942;BME280;10630;53.734;10.282;2023-02-18T08:13:13;100822.31;;;12.34;73.86
20942;BME280;10630;53.734;10.282;2023-02-18T08:15:41;100823.06;;;12.20;74.32
20942;BME280;10630;53.734;10.282;2023-02-18T08:18:15;100826.69;;;12.27;73.63
20942;BME280;10630;53.734;10.282;2023-02-18T08:20:41;100821.25;;;12.67;72.62
20942;BME280;10630;53.734;10.282;2023-02-18T08:23:08;100814.13;;;13.06;71.39
20942;BME280;10630;53.734;10.282;2023-02-18T08:25:36;100820.78;;;12.63;71.30
20942;BME280;10630;53.734;10.282;2023-02-18T08:28:03;100817.94;;;12.65;72.62
20942;BME280;10630;53.734;10.282;2023-02-18T08:30:31;100819.34;;;12.76;72.44
20942;BME280;10630;53.734;10.282;2023-02-18T08:32:57;100820.81;;;13.02;71.49
20942;BME280;10630;53.734;10.282;2023-02-18T08:35:24;100813.81;;;13.01;70.39
20942;BME280;10630;53.734;10.282;2023-02-18T08:37:50;100809.00;;;12.96;70.51
20942;BME280;10630;53.734;10.282;2023-02-18T08:40:20;100804.72;;;12.95;70.92
20942;BME280;10630;53.734;10.282;2023-02-18T08:42:48;100798.31;;;13.19;70.09
20942;BME280;10630;53.734;10.282;2023-02-18T08:45:15;100798.72;;;13.08;70.19
20942;BME280;10630;53.734;10.282;2023-02-18T08:47:42;100789.69;;;13.09;70.56
20942;BME280;10630;53.734;10.282;2023-02-18T08:50:28;100783.53;;;13.23;70.44
20942;BME280;10630;53.734;10.282;2023-02-18T08:52:56;100770.28;;;13.30;70.45
20942;BME280;10630;53.734;10.282;2023-02-18T08:55:26;100769.06;;;13.03;71.15
20942;BME280;10630;53.734;10.282;2023-02-18T08:57:54;100761.94;;;13.48;70.36
20942;BME280;10630;53.734;10.282;2023-02-18T09:00:22;100761.19;;;13.54;69.12
20942;BME280;10630;53.734;10.282;2023-02-18T09:02:49;100734.44;;;13.54;68.89
20942;BME280;10630;53.734;10.282;2023-02-18T09:05:16;100737.22;;;13.46;69.50
20942;BME280;10630;53.734;10.282;2023-02-18T09:07:45;100725.91;;;13.44;69.67
20942;BME280;10630;53.734;10.282;2023-02-18T09:10:14;100712.31;;;13.16;70.18
20942;BME280;10630;53.734;10.282;2023-02-18T09:12:44;100702.00;;;13.42;71.15
20942;BME280;10630;53.734;10.282;2023-02-18T09:15:11;100701.84;;;13.44;71.07
20942;BME280;10630;53.734;10.282;2023-02-18T09:17:38;100693.97;;;12.97;72.25
20942;BME280;10630;53.734;10.282;2023-02-18T09:20:05;100689.09;;;13.46;71.85
20942;BME280;10630;53.734;10.282;2023-02-18T09:22:33;100679.69;;;13.35;71.67
20942;BME280;10630;53.734;10.282;2023-02-18T09:25:04;100675.53;;;13.63;70.59
20942;BME280;10630;53.734;10.282;2023-02-18T09:27:35;100664.56;;;13.57;70.42
20942;BME280;10630;53.734;10.282;2023-02-18T09:30:06;100668.50;;;13.61;70.60
20942;BME280;10630;53.734;10.282;2023-02-18T09:32:37;100670.81;;;13.65;70.75
20942;BME280;10630;53.734;10.282;2023-02-18T09:35:09;100673.63;;;13.78;70.43
20942;BME280;10630;53.734;10.282;2023-02-18T09:37:35;100664.94;;;13.54;70.14
20942;BME280;10630;53.734;10.282;2023-02-18T09:40:04;100654.91;;;13.78;69.99
20942;BME280;10630;53.734;10.282;2023-02-18T09:42:32;100647.72;;;13.27;70.13
20942;BME280;10630;53.734;10.282;2023-02-18T09:45:01;100649.88;;;13.68;70.16
20942;BME280;10630;53.734;10.282;2023-02-18T09:47:37;100642.31;;;13.72;70.46
20942;BME280;10630;53.734;10.282;2023-02-18T09:50:13;100639.44;;;13.95;69.45
20942;BME280;10630;53.734;10.282;2023-02-18T09:52:43;100634.75;;;13.60;70.33
20942;BME280;10630;53.734;10.282;2023-02-18T09:57:51;100632.38;;;14.09;68.81
20942;BME280;10630;53.734;10.282;2023-02-18T10:00:24;100613.19;;;14.05;68.25
20942;BME280;10630;53.734;10.282;2023-02-18T10:02:55;100615.81;;;13.99;68.30
20942;BME280;10630;53.734;10.282;2023-02-18T10:05:22;100606.41;;;14.03;68.13
20942;BME280;10630;53.734;10.282;2023-02-18T10:07:50;100600.84;;;13.83;69.13
20942;BME280;10630;53.734;10.282;2023-02-18T10:10:26;100592.78;;;13.98;68.65
20942;BME280;10630;53.734;10.282;2023-02-18T10:12:57;100591.78;;;14.05;67.85
20942;BME280;10630;53.734;10.282;2023-02-18T10:15:26;100579.78;;;13.73;68.99
20942;BME280;10630;53.734;10.282;2023-02-18T10:17:56;100587.03;;;13.57;69.17
20942;BME280;10630;53.734;10.282;2023-02-18T10:20:25;100601.28;;;13.43;72.77
20942;BME280;10630;53.734;10.282;2023-02-18T10:22:56;100611.22;;;13.71;70.96
20942;BME280;10630;53.734;10.282;2023-02-18T10:25:26;100602.84;;;13.96;68.87
20942;BME280;10630;53.734;10.282;2023-02-18T10:27:54;100604.97;;;13.42;69.68
20942;BME280;10630;53.734;10.282;2023-02-18T10:30:34;100594.53;;;13.69;69.54
20942;BME280;10630;53.734;10.282;2023-02-18T10:35:45;100583.59;;;13.64;69.44
20942;BME280;10630;53.734;10.282;2023-02-18T10:40:50;100578.75;;;13.74;69.33
20942;BME280;10630;53.734;10.282;2023-02-18T10:43:24;100569.66;;;13.68;69.30
20942;BME280;10630;53.734;10.282;2023-02-18T10:46:01;100575.03;;;13.53;70.60
20942;BME280;10630;53.734;10.282;2023-02-18T10:48:50;100566.31;;;14.09;69.06
20942;BME280;10630;53.734;10.282;2023-02-18T10:51:22;100552.91;;;13.81;69.42
20942;BME280;10630;53.734;10.282;2023-02-18T10:53:50;100542.44;;;13.86;70.28
20942;BME280;10630;53.734;10.282;2023-02-18T10:59:11;100528.72;;;13.68;70.03
20942;BME280;10630;53.734;10.282;2023-02-18T11:01:38;100515.25;;;13.83;70.64
20942;BME280;10630;53.734;10.282;2023-02-18T11:04:13;100509.97;;;13.89;70.31
20942;BME280;10630;53.734;10.282;2023-02-18T11:06:41;100502.44;;;13.71;70.44
20942;BME280;10630;53.734;10.282;2023-02-18T11:09:45;100487.22;;;14.00;70.54
20942;BME280;10630;53.734;10.282;2023-02-18T11:12:05;100483.03;;;13.91;70.71
20942;BME280;10630;53.734;10.282;2023-02-18T11:14:36;100469.38;;;14.14;70.02
20942;BME280;10630;53.734;10.282;2023-02-18T11:17:14;100470.22;;;14.15;70.49
20942;BME280;10630;53.734;10.282;2023-02-18T11:19:45;100477.00;;;13.82;73.29
20942;BME280;10630;53.734;10.282;2023-02-18T11:22:29;100461.84;;;13.96;73.04
20942;BME280;10630;53.734;10.282;2023-02-18T11:25:03;100464.41;;;13.54;73.24
20942;BME280;10630;53.734;10.282;2023-02-18T11:27:43;100457.84;;;13.57;73.67
20942;BME280;10630;53.734;10.282;2023-02-18T11:30:21;100453.69;;;14.04;72.99
20942;BME280;10630;53.734;10.282;2023-02-18T11:32:49;100449.13;;;13.98;71.67
20942;BME280;10630;53.734;10.282;2023-02-18T11:35:20;100439.81;;;14.29;69.83
20942;BME280;10630;53.734;10.282;2023-02-18T11:37:48;100433.97;;;14.12;72.30
20942;BME280;10630;53.734;10.282;2023-02-18T11:40:23;100424.59;;;13.95;72.78
20942;BME280;10630;53.734;10.282;2023-02-18T11:42:51;100417.66;;;13.72;74.64
20942;BME280;10630;53.734;10.282;2023-02-18T11:45:30;100430.66;;;13.53;74.14
20942;BME280;10630;53.734;10.282;2023-02-18T11:48:00;100435.44;;;11.20;87.45
20942;BME280;10630;53.734;10.282;2023-02-18T11:50:31;100431.84;;;12.49;88.79
20942;BME280;10630;53.734;10.282;2023-02-18T11:52:59;100432.22;;;13.41;78.95
20942;BME280;10630;53.734;10.282;2023-02-18T11:55:26;100426.78;;;13.84;76.73
20942;BME280;10630;53.734;10.282;2023-02-18T11:57:57;100429.22;;;14.14;75.08
20942;BME280;10630;53.734;10.282;2023-02-18T12:00:41;100424.72;;;14.56;72.48
20942;BME280;10630;53.734;10.282;2023-02-18T12:05:56;100425.19;;;14.67;70.57
20942;BME280;10630;53.734;10.282;2023-02-18T12:08:26;100430.22;;;14.97;70.97
20942;BME280;10630;53.734;10.282;2023-02-18T12:11:05;100445.75;;;14.60;71.39
20942;BME280;10630;53.734;10.282;2023-02-18T12:13:37;100447.78;;;14.57;71.86
20942;BME280;10630;53.734;10.282;2023-02-18T12:26:27;100440.09;;;14.90;71.72
20942;BME280;10630;53.734;10.282;2023-02-18T12:39:21;100456.06;;;13.92;79.58
20942;BME280;10630;53.734;10.282;2023-02-18T13:03:43;100512.16;;;9.13;100.00
20942;BME280;10630;53.734;10.282;2023-02-18T13:11:53;100533.50;;;9.79;100.00
20942;BME280;10630;53.734;10.282;2023-02-18T13:14:23;100522.19;;;10.18;100.00
20942;BME280;10630;53.734;10.282;2023-02-18T13:16:52;100524.84;;;10.10;100.00
20942;BME280;10630;53.734;10.282;2023-02-18T13:21:50;100540.63;;;9.62;100.00
20942;BME280;10630;53.734;10.282;2023-02-18T13:24:26;100549.13;;;9.57;100.00
20942;BME280;10630;53.734;10.282;2023-02-18T13:27:03;100555.78;;;9.86;100.00
20942;BME280;10630;53.734;10.282;2023-02-18T13:29:34;100587.13;;;9.49;100.00
20942;BME280;10630;53.734;10.282;2023-02-18T13:40:20;100587.25;;;8.36;100.00
20942;BME280;10630;53.734;10.282;2023-02-18T13:42:52;100592.81;;;8.51;100.00
20942;BME280;10630;53.734;10.282;2023-02-18T13:45:30;100602.69;;;7.96;100.00
20942;BME280;10630;53.734;10.282;2023-02-18T13:47:57;100609.31;;;8.18;100.00
20942;BME280;10630;53.734;10.282;2023-02-18T13:50:29;100626.41;;;8.42;100.00
20942;BME280;10630;53.734;10.282;2023-02-18T13:58:25;100647.09;;;8.57;100.00
20942;BME280;10630;53.734;10.282;2023-02-18T14:00:54;100647.81;;;8.22;100.00
20942;BME280;10630;53.734;10.282;2023-02-18T14:05:55;100654.16;;;8.30;100.00
20942;BME280;10630;53.734;10.282;2023-02-18T14:08:35;100649.44;;;8.86;100.00
20942;BME280;10630;53.734;10.282;2023-02-18T14:13:40;100655.78;;;8.04;100.00
20942;BME280;10630;53.734;10.282;2023-02-18T14:16:09;100662.25;;;8.64;100.00
20942;BME280;10630;53.734;10.282;2023-02-18T14:18:56;100666.56;;;8.65;100.00
20942;BME280;10630;53.734;10.282;2023-02-18T14:21:38;100673.03;;;8.97;99.38
20942;BME280;10630;53.734;10.282;2023-02-18T14:24:06;100681.63;;;9.17;99.00
20942;BME280;10630;53.734;10.282;2023-02-18T14:26:36;100698.41;;;8.11;100.00
20942;BME280;10630;53.734;10.282;2023-02-18T14:29:09;100692.34;;;8.37;100.00
20942;BME280;10630;53.734;10.282;2023-02-18T14:47:33;100717.66;;;8.94;95.06
20942;BME280;10630;53.734;10.282;2023-02-18T14:50:04;100718.84;;;8.99;94.92
20942;BME280;10630;53.734;10.282;2023-02-18T14:52:46;100730.00;;;9.03;94.27
20942;BME280;10630;53.734;10.282;2023-02-18T14:55:25;100744.66;;;9.76;90.63
20942;BME280;10630;53.734;10.282;2023-02-18T14:57:54;100736.66;;;9.68;90.70
20942;BME280;10630;53.734;10.282;2023-02-18T15:00:23;100733.47;;;9.64;90.17
20942;BME280;10630;53.734;10.282;2023-02-18T15:02:52;100732.72;;;9.46;91.53
20942;BME280;10630;53.734;10.282;2023-02-18T15:05:23;100729.72;;;9.41;91.97
20942;BME280;10630;53.734;10.282;2023-02-18T15:07:58;100733.56;;;9.55;92.08
20942;BME280;10630;53.734;10.282;2023-02-18T15:10:28;100736.75;;;10.09;87.25
20942;BME280;10630;53.734;10.282;2023-02-18T15:13:00;100741.13;;;10.85;84.10
20942;BME280;10630;53.734;10.282;2023-02-18T15:15:29;100753.13;;;10.39;81.34
20942;BME280;10630;53.734;10.282;2023-02-18T15:17:58;100760.44;;;10.87;82.26